createdAt,value
2022-12-01T00:01:12.545Z,7.10
2022-12-01T00:03:39.486Z,7.10
2022-12-01T00:06:11.892Z,7.10
2022-12-01T00:08:38.826Z,7.10
2022-12-01T00:11:10.425Z,7.20
2022-12-01T00:13:37.675Z,7.10
2022-12-01T00:16:15.949Z,7.10
2022-12-01T00:18:43.480Z,7.10
2022-12-01T00:21:17.633Z,7.20
2022-12-01T00:23:47.176Z,7.20
2022-12-01T00:26:14.879Z,7.10
2022-12-01T00:28:41.609Z,7.10
2022-12-01T00:31:12.200Z,7.20
2022-12-01T00:33:39.657Z,7.20
2022-12-01T00:36:07.449Z,7.20
2022-12-01T00:38:34.660Z,7.20
2022-12-01T00:41:02.702Z,7.10
2022-12-01T00:43:29.616Z,7.10
2022-12-01T00:45:57.855Z,7.10
2022-12-01T00:48:24.619Z,7.10
2022-12-01T00:50:53.465Z,7.10
2022-12-01T00:53:20.911Z,7.10
2022-12-01T00:55:47.568Z,7.10
2022-12-01T00:58:14.248Z,7.10
2022-12-01T01:00:42.803Z,7.20
2022-12-01T01:03:10.295Z,7.10
2022-12-01T01:05:37.790Z,7.10
2022-12-01T01:08:12.871Z,7.10
2022-12-01T01:10:41.456Z,7.10
2022-12-01T01:13:08.372Z,7.10
2022-12-01T01:15:35.579Z,7.10
2022-12-01T01:18:02.363Z,7.10
2022-12-01T01:20:29.585Z,7.10
2022-12-01T01:22:56.670Z,7.10
2022-12-01T01:25:23.427Z,7.00
2022-12-01T01:27:50.701Z,7.10
2022-12-01T01:30:18.172Z,7.00
2022-12-01T01:32:44.905Z,7.00
2022-12-01T01:35:11.543Z,7.00
2022-12-01T01:37:38.197Z,7.00
2022-12-01T01:40:05.691Z,6.90
2022-12-01T01:42:32.284Z,7.00
2022-12-01T01:44:59.199Z,7.00
2022-12-01T01:47:32.995Z,7.00
2022-12-01T01:50:06.408Z,6.90
2022-12-01T01:52:36.311Z,6.90
2022-12-01T01:55:03.222Z,6.90
2022-12-01T01:57:33.111Z,7.00
2022-12-01T02:00:05.253Z,7.00
2022-12-01T02:02:44.157Z,7.10
2022-12-01T02:05:24.394Z,7.00
2022-12-01T02:07:53.522Z,7.00
2022-12-01T02:10:22.824Z,6.90
2022-12-01T02:13:17.057Z,6.90
2022-12-01T02:15:47.895Z,6.90
2022-12-01T02:18:29.473Z,6.80
2022-12-01T02:21:21.460Z,6.80
2022-12-01T02:24:26.256Z,6.80
2022-12-01T02:26:58.816Z,6.80
2022-12-01T02:29:42.617Z,6.80
2022-12-01T02:32:31.156Z,6.70
2022-12-01T02:35:22.429Z,6.70
2022-12-01T02:38:09.889Z,6.70
2022-12-01T02:40:39.495Z,6.70
2022-12-01T02:43:22.525Z,6.70
2022-12-01T02:45:55.118Z,6.80
2022-12-01T02:48:36.826Z,6.70
2022-12-01T02:51:10.275Z,6.80
2022-12-01T02:53:37.033Z,6.80
2022-12-01T02:56:09.677Z,6.80
2022-12-01T02:58:36.389Z,6.80
2022-12-01T03:01:17.938Z,6.70
2022-12-01T03:04:08.730Z,6.70
2022-12-01T03:06:53.089Z,6.70
2022-12-01T03:09:19.660Z,6.70
2022-12-01T03:12:06.569Z,6.70
2022-12-01T03:14:45.016Z,6.80
2022-12-01T03:17:17.945Z,6.80
2022-12-01T03:19:55.887Z,6.70
2022-12-01T03:22:49.516Z,6.70
2022-12-01T03:25:17.515Z,6.70
2022-12-01T03:28:00.901Z,6.70
2022-12-01T03:30:38.433Z,6.60
2022-12-01T03:33:09.746Z,6.60
2022-12-01T03:35:47.929Z,6.70
2022-12-01T03:38:19.704Z,6.70
2022-12-01T03:40:49.569Z,6.70
2022-12-01T03:43:22.552Z,6.60
2022-12-01T03:45:59.982Z,6.60
2022-12-01T03:48:27.671Z,6.60
2022-12-01T03:51:04.737Z,6.60
2022-12-01T03:53:55.400Z,6.50
2022-12-01T03:56:26.083Z,6.50
2022-12-01T03:58:57.925Z,6.50
2022-12-01T04:01:26.378Z,6.50
2022-12-01T04:03:53.105Z,6.50
2022-12-01T04:06:19.734Z,6.50
2022-12-01T04:08:46.331Z,6.50
2022-12-01T04:11:32.963Z,6.50
2022-12-01T04:13:59.901Z,6.50
2022-12-01T04:16:26.606Z,6.40
2022-12-01T04:18:53.278Z,6.40
2022-12-01T04:21:19.901Z,6.40
2022-12-01T04:24:01.773Z,6.30
2022-12-01T04:26:33.048Z,6.30
2022-12-01T04:29:00.710Z,6.30
2022-12-01T04:31:28.170Z,6.30
2022-12-01T04:33:56.029Z,6.30
2022-12-01T04:36:23.647Z,6.30
2022-12-01T04:38:50.273Z,6.30
2022-12-01T04:41:17.050Z,6.30
2022-12-01T04:43:43.741Z,6.30
2022-12-01T04:46:10.606Z,6.30
2022-12-01T04:48:38.426Z,6.30
2022-12-01T04:51:07.191Z,6.20
2022-12-01T04:53:35.011Z,6.30
2022-12-01T04:56:02.013Z,6.30
2022-12-01T04:58:30.464Z,6.40
2022-12-01T05:01:12.687Z,6.40
2022-12-01T05:03:40.980Z,6.30
2022-12-01T05:06:10.856Z,6.30
2022-12-01T05:08:38.054Z,6.20
2022-12-01T05:11:08.651Z,6.30
2022-12-01T05:13:37.153Z,6.30
2022-12-01T05:16:09.136Z,6.30
2022-12-01T05:18:36.095Z,6.30
2022-12-01T05:21:04.177Z,6.30
2022-12-01T05:23:33.812Z,6.40
2022-12-01T05:26:01.800Z,6.40
2022-12-01T05:28:29.152Z,6.40
2022-12-01T05:30:56.098Z,6.40
2022-12-01T05:33:24.607Z,6.40
2022-12-01T05:35:51.751Z,6.30
2022-12-01T05:38:19.551Z,6.30
2022-12-01T05:40:54.325Z,6.20
2022-12-01T05:43:28.259Z,6.20
2022-12-01T05:45:56.972Z,6.20
2022-12-01T05:48:24.200Z,6.20
2022-12-01T05:50:51.631Z,6.20
2022-12-01T05:53:18.769Z,6.20
2022-12-01T05:55:45.504Z,6.20
2022-12-01T05:58:12.528Z,6.20
2022-12-01T06:00:45.331Z,6.30
2022-12-01T06:03:13.171Z,6.30
2022-12-01T06:05:40.395Z,6.30
2022-12-01T06:08:07.437Z,6.20
2022-12-01T06:10:34.433Z,6.10
2022-12-01T06:13:01.040Z,6.00
2022-12-01T06:15:27.708Z,6.00
2022-12-01T06:17:54.352Z,6.00
2022-12-01T06:20:20.961Z,6.00
2022-12-01T06:22:48.151Z,6.00
2022-12-01T06:25:14.923Z,5.90
2022-12-01T06:27:41.808Z,6.00
2022-12-01T06:30:09.617Z,6.00
2022-12-01T06:32:36.455Z,5.90
2022-12-01T06:35:03.269Z,6.00
2022-12-01T06:37:29.859Z,6.00
2022-12-01T06:39:56.573Z,6.00
2022-12-01T06:42:23.393Z,6.00
2022-12-01T06:44:50.065Z,5.90
2022-12-01T06:47:16.781Z,5.90
2022-12-01T06:49:43.931Z,5.90
2022-12-01T06:52:10.831Z,6.00
2022-12-01T06:54:37.577Z,6.00
2022-12-01T06:57:04.641Z,6.00
2022-12-01T06:59:31.638Z,6.00
2022-12-01T07:01:58.942Z,6.00
2022-12-01T07:04:25.703Z,6.00
2022-12-01T07:06:52.295Z,5.90
2022-12-01T07:09:19.064Z,6.00
2022-12-01T07:11:45.733Z,6.00
2022-12-01T07:14:23.828Z,6.10
2022-12-01T07:16:50.812Z,6.10
2022-12-01T07:19:17.556Z,6.00
2022-12-01T07:21:44.308Z,6.10
2022-12-01T07:24:12.467Z,6.00
2022-12-01T07:26:40.961Z,6.10
2022-12-01T07:29:09.064Z,6.10
2022-12-01T07:31:36.758Z,6.10
2022-12-01T07:34:04.229Z,6.10
2022-12-01T07:36:31.452Z,6.10
2022-12-01T07:38:58.165Z,6.10
2022-12-01T07:41:24.982Z,6.00
2022-12-01T07:43:51.887Z,6.10
2022-12-01T07:46:23.832Z,6.00
2022-12-01T07:48:52.825Z,6.10
2022-12-01T07:51:19.733Z,6.10
2022-12-01T07:53:48.029Z,6.10
2022-12-01T07:56:15.609Z,6.10
2022-12-01T07:58:42.625Z,6.20
2022-12-01T08:01:14.621Z,6.10
2022-12-01T08:03:42.257Z,6.10
2022-12-01T08:06:09.346Z,6.10
2022-12-01T08:08:37.544Z,6.20
2022-12-01T08:11:13.438Z,6.20
2022-12-01T08:13:41.424Z,6.20
2022-12-01T08:16:10.319Z,6.10
2022-12-01T08:18:38.471Z,6.10
2022-12-01T08:21:06.726Z,6.10
2022-12-01T08:23:34.011Z,6.20
2022-12-01T08:26:02.134Z,6.10
2022-12-01T08:28:29.460Z,6.10
2022-12-01T08:30:56.663Z,6.10
2022-12-01T08:33:23.822Z,6.10
2022-12-01T08:35:50.464Z,6.20
2022-12-01T08:38:17.244Z,6.20
2022-12-01T08:40:43.845Z,6.10
2022-12-01T08:43:28.297Z,6.20
2022-12-01T08:46:01.234Z,6.20
2022-12-01T08:48:29.912Z,6.20
2022-12-01T08:51:15.374Z,6.20
2022-12-01T08:53:45.774Z,6.20
2022-12-01T08:56:37.893Z,6.30
2022-12-01T08:59:05.321Z,6.20
2022-12-01T09:01:33.040Z,6.30
2022-12-01T09:04:10.760Z,6.30
2022-12-01T09:06:42.935Z,6.40
2022-12-01T09:09:12.465Z,6.40
2022-12-01T09:11:39.933Z,6.40
2022-12-01T09:14:06.815Z,6.20
2022-12-01T09:16:33.572Z,6.20
2022-12-01T09:19:00.458Z,6.20
2022-12-01T09:21:32.215Z,6.30
2022-12-01T09:24:00.083Z,6.30
2022-12-01T09:26:27.184Z,6.40
2022-12-01T09:28:56.212Z,6.40
2022-12-01T09:31:23.417Z,6.40
2022-12-01T09:34:01.885Z,6.40
2022-12-01T09:36:30.717Z,6.40
2022-12-01T09:38:58.167Z,6.40
2022-12-01T09:41:32.956Z,6.40
2022-12-01T09:44:15.616Z,6.40
2022-12-01T09:46:51.635Z,6.40
2022-12-01T09:49:35.165Z,6.40
2022-12-01T09:52:02.107Z,6.40
2022-12-01T09:54:29.695Z,6.40
2022-12-01T09:56:59.244Z,6.40
2022-12-01T09:59:31.781Z,6.30
2022-12-01T10:02:02.093Z,6.20
2022-12-01T10:04:41.804Z,6.20
2022-12-01T10:07:31.772Z,6.20
2022-12-01T10:10:13.140Z,6.20
2022-12-01T10:12:42.327Z,6.20
2022-12-01T10:15:49.365Z,6.30
2022-12-01T10:18:39.925Z,6.20
2022-12-01T10:21:47.435Z,6.20
2022-12-01T10:24:32.696Z,6.20
2022-12-01T10:27:28.055Z,6.20
2022-12-01T10:30:04.445Z,6.20
2022-12-01T10:32:52.414Z,6.20
2022-12-01T10:35:22.466Z,6.30
2022-12-01T10:37:56.611Z,6.20
2022-12-01T10:40:24.171Z,6.30
2022-12-01T10:42:52.535Z,6.30
2022-12-01T10:45:29.313Z,6.40
2022-12-01T10:48:21.332Z,6.40
2022-12-01T10:50:53.557Z,6.20
2022-12-01T10:53:23.240Z,6.30
2022-12-01T10:55:56.120Z,6.30
2022-12-01T10:58:23.104Z,6.30
2022-12-01T11:01:00.878Z,6.30
2022-12-01T11:03:31.173Z,6.40
2022-12-01T11:06:00.441Z,6.40
2022-12-01T11:08:41.750Z,6.30
2022-12-01T11:11:27.856Z,7.80
2022-12-01T11:13:55.827Z,7.60
2022-12-01T11:16:41.910Z,7.00
2022-12-01T11:19:30.386Z,6.60
2022-12-01T11:21:59.700Z,6.50
2022-12-01T11:24:55.601Z,7.00
2022-12-01T11:27:26.376Z,6.70
2022-12-01T11:29:56.908Z,6.60
2022-12-01T11:32:29.729Z,7.00
2022-12-01T11:35:14.555Z,6.80
2022-12-01T11:38:20.968Z,6.60
2022-12-01T11:40:47.503Z,6.50
2022-12-01T11:43:30.818Z,6.40
2022-12-01T11:46:00.853Z,6.30
2022-12-01T11:48:30.455Z,6.30
2022-12-01T11:51:09.011Z,6.40
2022-12-01T11:53:41.525Z,6.40
2022-12-01T11:56:17.513Z,6.40
2022-12-01T11:58:46.348Z,6.40
2022-12-01T12:01:32.146Z,6.50
2022-12-01T12:04:12.860Z,6.40
2022-12-01T12:07:07.674Z,6.40
2022-12-01T12:09:46.427Z,6.40
2022-12-01T12:12:39.969Z,6.40
2022-12-01T12:15:22.681Z,6.30
2022-12-01T12:18:16.877Z,6.30
2022-12-01T12:20:58.598Z,6.20
2022-12-01T12:23:31.464Z,6.20
2022-12-01T12:26:07.341Z,6.20
2022-12-01T12:28:45.958Z,6.20
2022-12-01T12:31:22.595Z,6.10
2022-12-01T12:34:04.649Z,6.20
2022-12-01T12:36:46.445Z,6.20
2022-12-01T12:39:32.358Z,6.20
2022-12-01T12:42:01.565Z,6.20
2022-12-01T12:44:52.198Z,6.30
2022-12-01T12:47:36.701Z,6.30
2022-12-01T12:50:23.548Z,6.40
2022-12-01T12:52:55.256Z,6.40
2022-12-01T12:55:27.709Z,6.40
2022-12-01T12:57:58.841Z,6.80
2022-12-01T13:00:27.836Z,6.70
2022-12-01T13:03:12.984Z,6.60
2022-12-01T13:05:46.946Z,6.50
2022-12-01T13:08:13.510Z,6.50
2022-12-01T13:10:57.937Z,6.50
2022-12-01T13:13:48.346Z,6.40
2022-12-01T13:16:19.733Z,6.40
2022-12-01T13:19:18.111Z,6.30
2022-12-01T13:21:48.060Z,6.30
2022-12-01T13:24:23.265Z,6.30
2022-12-01T13:26:56.435Z,6.30
2022-12-01T13:29:25.741Z,6.40
2022-12-01T13:31:54.460Z,6.40
2022-12-01T13:34:41.099Z,6.50
2022-12-01T13:37:10.400Z,6.50
2022-12-01T13:39:39.683Z,6.50
2022-12-01T13:42:08.829Z,6.40
2022-12-01T13:44:42.752Z,6.40
2022-12-01T13:47:12.532Z,6.40
2022-12-01T13:49:45.048Z,6.40
2022-12-01T13:52:25.644Z,6.50
2022-12-01T13:55:07.449Z,6.50
2022-12-01T13:57:38.290Z,6.50
2022-12-01T14:00:19.819Z,6.50
2022-12-01T14:02:46.928Z,6.40
2022-12-01T14:05:22.927Z,6.40
2022-12-01T14:07:51.758Z,6.40
2022-12-01T14:10:23.985Z,6.40
2022-12-01T14:12:52.865Z,6.40
2022-12-01T14:15:35.726Z,6.30
2022-12-01T14:18:40.479Z,6.40
2022-12-01T14:21:09.387Z,6.30
2022-12-01T14:23:58.044Z,6.20
2022-12-01T14:26:25.290Z,6.20
2022-12-01T14:29:00.756Z,6.30
2022-12-01T14:31:33.303Z,6.30
2022-12-01T14:34:34.657Z,6.20
2022-12-01T14:37:18.271Z,6.20
2022-12-01T14:39:50.599Z,6.30
2022-12-01T14:42:58.842Z,6.40
2022-12-01T14:45:47.337Z,6.40
2022-12-01T14:48:19.873Z,6.30
2022-12-01T14:50:50.143Z,6.30
2022-12-01T14:53:47.076Z,6.30
2022-12-01T14:56:18.614Z,6.30
2022-12-01T14:59:13.489Z,6.30
2022-12-01T15:01:41.259Z,6.50
2022-12-01T15:04:08.027Z,6.40
2022-12-01T15:06:37.314Z,6.30
2022-12-01T15:09:36.344Z,6.30
2022-12-01T15:12:07.340Z,6.20
2022-12-01T15:14:37.552Z,6.20
2022-12-01T15:17:05.736Z,6.10
2022-12-01T15:19:40.516Z,6.10
2022-12-01T15:22:15.417Z,6.00
2022-12-01T15:24:42.636Z,6.00
2022-12-01T15:27:25.879Z,6.00
2022-12-01T15:29:53.028Z,5.90
2022-12-01T15:32:22.739Z,5.90
2022-12-01T15:34:53.485Z,5.90
2022-12-01T15:37:26.435Z,5.80
2022-12-01T15:40:11.890Z,5.70
2022-12-01T15:42:43.525Z,5.70
2022-12-01T15:45:22.678Z,5.70
2022-12-01T15:47:51.480Z,5.60
2022-12-01T15:50:33.293Z,5.60
2022-12-01T15:53:04.037Z,5.50
2022-12-01T15:55:36.497Z,5.40
2022-12-01T15:58:07.732Z,5.40
2022-12-01T16:00:35.039Z,5.40
2022-12-01T16:03:02.363Z,5.40
2022-12-01T16:05:32.475Z,5.40
2022-12-01T16:08:23.760Z,5.40
2022-12-01T16:11:09.873Z,5.50
2022-12-01T16:13:57.769Z,5.50
2022-12-01T16:16:42.882Z,5.60
2022-12-01T16:19:09.457Z,5.60
2022-12-01T16:21:42.163Z,5.60
2022-12-01T16:24:16.693Z,5.60
2022-12-01T16:26:52.381Z,5.60
2022-12-01T16:29:21.824Z,5.60
2022-12-01T16:32:18.702Z,5.60
2022-12-01T16:34:47.125Z,5.60
2022-12-01T16:37:14.605Z,5.70
2022-12-01T16:39:41.380Z,5.80
2022-12-01T16:42:15.239Z,5.80
2022-12-01T16:44:43.360Z,5.80
2022-12-01T16:47:20.229Z,5.70
2022-12-01T16:49:46.942Z,5.70
2022-12-01T16:55:00.711Z,5.70
2022-12-01T16:57:27.324Z,5.70
2022-12-01T16:59:53.936Z,5.70
2022-12-01T17:02:20.574Z,5.80
2022-12-01T17:04:47.317Z,5.80
2022-12-01T17:07:14.186Z,5.80
2022-12-01T17:09:40.791Z,5.70
2022-12-01T17:12:07.609Z,5.60
2022-12-01T17:14:35.909Z,5.60
2022-12-01T17:17:03.776Z,5.60
2022-12-01T17:19:30.368Z,5.50
2022-12-01T17:21:57.066Z,5.50
2022-12-01T17:24:24.384Z,5.50
2022-12-01T17:26:51.025Z,5.50
2022-12-01T17:29:17.608Z,5.40
2022-12-01T17:31:44.321Z,5.30
2022-12-01T17:34:11.060Z,5.30
2022-12-01T17:36:38.016Z,5.30
2022-12-01T17:39:04.622Z,5.30
2022-12-01T17:41:35.479Z,5.20
2022-12-01T17:44:03.514Z,5.20
2022-12-01T17:46:30.845Z,5.10
2022-12-01T17:48:57.566Z,5.20
2022-12-01T17:51:24.210Z,5.10
2022-12-01T17:53:52.388Z,5.10
2022-12-01T17:56:19.036Z,5.10
2022-12-01T17:58:45.635Z,5.10
2022-12-01T18:01:16.187Z,5.10
2022-12-01T18:03:43.033Z,5.20
2022-12-01T18:06:11.510Z,5.20
2022-12-01T18:08:39.689Z,5.20
2022-12-01T18:11:09.866Z,5.20
2022-12-01T18:13:41.546Z,5.20
2022-12-01T18:16:10.699Z,5.20
2022-12-01T18:18:39.636Z,5.10
2022-12-01T18:21:12.020Z,5.10
2022-12-01T18:23:38.942Z,5.10
2022-12-01T18:26:16.096Z,5.10
2022-12-01T18:28:43.484Z,5.00
2022-12-01T18:31:15.567Z,5.00
2022-12-01T18:33:44.616Z,5.00
2022-12-01T18:36:20.632Z,5.00
2022-12-01T18:38:48.362Z,5.00
2022-12-01T18:41:16.435Z,5.00
2022-12-01T18:43:43.581Z,5.00
2022-12-01T18:46:11.827Z,5.00
2022-12-01T18:48:43.101Z,5.10
2022-12-01T18:51:10.686Z,5.10
2022-12-01T18:53:37.683Z,5.10
2022-12-01T18:56:06.787Z,5.00
2022-12-01T18:58:34.351Z,5.00
2022-12-01T19:01:01.870Z,5.00
2022-12-01T19:03:30.270Z,4.90
2022-12-01T19:05:56.898Z,5.00
2022-12-01T19:08:23.649Z,5.00
2022-12-01T19:11:02.905Z,4.90
2022-12-01T19:13:30.799Z,4.90
2022-12-01T19:15:58.010Z,4.80
2022-12-01T19:18:25.137Z,4.80
2022-12-01T19:20:51.736Z,4.80
2022-12-01T19:23:18.492Z,4.90
2022-12-01T19:25:45.108Z,4.90
2022-12-01T19:28:11.751Z,4.90
2022-12-01T19:30:38.595Z,4.90
2022-12-01T19:33:05.286Z,5.00
2022-12-01T19:35:31.896Z,4.90
2022-12-01T19:37:58.517Z,4.80
2022-12-01T19:40:25.148Z,4.80
2022-12-01T19:42:53.309Z,4.70
2022-12-01T19:45:19.984Z,4.80
2022-12-01T19:47:46.694Z,4.80
2022-12-01T19:50:13.336Z,4.90
2022-12-01T19:52:41.431Z,4.80
2022-12-01T19:55:10.580Z,4.90
2022-12-01T19:57:37.206Z,4.80
2022-12-01T20:00:04.657Z,4.90
2022-12-01T20:02:38.626Z,5.00
2022-12-01T20:05:05.609Z,5.00
2022-12-01T20:07:32.242Z,5.00
2022-12-01T20:09:58.893Z,5.00
2022-12-01T20:12:25.586Z,4.90
2022-12-01T20:14:52.611Z,5.00
2022-12-01T20:17:19.549Z,4.90
2022-12-01T20:19:46.137Z,4.80
2022-12-01T20:22:12.769Z,4.80
2022-12-01T20:24:42.465Z,4.80
2022-12-01T20:27:09.751Z,4.70
2022-12-01T20:29:36.628Z,4.70
2022-12-01T20:32:03.982Z,4.70
2022-12-01T20:34:33.124Z,4.70
2022-12-01T20:37:00.485Z,4.70
2022-12-01T20:39:31.323Z,4.70
2022-12-01T20:41:57.981Z,4.70
2022-12-01T20:44:25.097Z,4.60
2022-12-01T20:46:52.381Z,4.70
2022-12-01T20:49:19.192Z,4.70
2022-12-01T20:51:46.908Z,4.70
2022-12-01T20:54:30.733Z,4.70
2022-12-01T20:56:57.849Z,4.70
2022-12-01T20:59:25.749Z,4.70
2022-12-01T21:01:52.384Z,4.80
2022-12-01T21:04:19.061Z,4.80
2022-12-01T21:06:45.736Z,4.80
2022-12-01T21:09:13.191Z,4.80
2022-12-01T21:12:05.235Z,4.80
2022-12-01T21:14:35.900Z,4.90
2022-12-01T21:17:18.557Z,4.90
2022-12-01T21:19:52.330Z,4.90
2022-12-01T21:22:20.017Z,5.00
2022-12-01T21:24:50.737Z,5.00
2022-12-01T21:27:18.241Z,4.90
2022-12-01T21:29:49.879Z,4.80
2022-12-01T21:32:18.837Z,4.80
2022-12-01T21:34:47.379Z,4.80
2022-12-01T21:37:23.518Z,4.80
2022-12-01T21:39:51.787Z,4.70
2022-12-01T21:42:26.312Z,4.70
2022-12-01T21:44:54.657Z,4.60
2022-12-01T21:47:24.159Z,4.60
2022-12-01T21:49:57.260Z,4.60
2022-12-01T21:52:30.017Z,4.60
2022-12-01T21:55:27.766Z,4.60
2022-12-01T21:57:54.821Z,4.70
2022-12-01T22:00:21.801Z,4.70
2022-12-01T22:02:50.924Z,4.70
2022-12-01T22:05:30.047Z,4.70
2022-12-01T22:08:07.751Z,4.70
2022-12-01T22:11:10.861Z,4.60
2022-12-01T22:13:41.440Z,4.60
2022-12-01T22:16:29.749Z,4.60
2022-12-01T22:19:08.285Z,4.50
2022-12-01T22:21:39.668Z,4.50
2022-12-01T22:24:09.497Z,4.50
2022-12-01T22:26:38.622Z,4.50
2022-12-01T22:29:16.753Z,4.50
2022-12-01T22:31:43.389Z,4.50
2022-12-01T22:34:11.661Z,4.30
2022-12-01T22:36:38.287Z,4.30
2022-12-01T22:39:25.252Z,4.30
2022-12-01T22:41:58.572Z,4.20
2022-12-01T22:44:27.472Z,4.20
2022-12-01T22:47:00.404Z,4.20
2022-12-01T22:49:27.142Z,4.10
2022-12-01T22:52:02.460Z,4.20
2022-12-01T22:54:34.474Z,4.10
2022-12-01T22:57:18.894Z,4.10
2022-12-01T22:59:47.630Z,4.00
2022-12-01T23:02:29.264Z,4.00
2022-12-01T23:04:59.525Z,4.00
2022-12-01T23:07:28.487Z,4.00
2022-12-01T23:10:07.618Z,4.00
2022-12-01T23:12:35.803Z,4.00
2022-12-01T23:15:14.695Z,4.10
2022-12-01T23:17:41.350Z,3.90
2022-12-01T23:20:11.206Z,3.80
2022-12-01T23:22:38.415Z,3.80
2022-12-01T23:25:16.629Z,3.80
2022-12-01T23:27:45.115Z,3.80
2022-12-01T23:30:13.365Z,3.80
2022-12-01T23:32:40.032Z,3.80
2022-12-01T23:35:18.826Z,3.80
2022-12-01T23:37:47.886Z,3.80
2022-12-01T23:40:29.908Z,3.90
2022-12-01T23:43:19.121Z,3.80
2022-12-01T23:45:47.893Z,3.80
2022-12-01T23:48:26.927Z,3.80
2022-12-01T23:50:54.300Z,3.90
2022-12-01T23:53:29.663Z,3.80
2022-12-01T23:56:03.428Z,3.90
2022-12-01T23:58:30.094Z,3.90
